createdAt,value
2023-09-30T04:55:30.410Z,99.90
2023-09-30T04:57:58.746Z,99.90
2023-09-30T05:00:27.549Z,99.90
2023-09-30T05:02:58.490Z,99.90
2023-09-30T05:05:26.993Z,99.90
2023-09-30T05:07:55.646Z,99.90
2023-09-30T05:10:24.323Z,99.90
2023-09-30T05:12:55.331Z,99.90
2023-09-30T05:15:23.975Z,99.90
2023-09-30T05:17:55.626Z,99.90
2023-09-30T10:28:51.568Z,69.50
2023-09-30T10:31:26.488Z,63.50
2023-09-30T10:55:44.129Z,53.20
2023-09-30T10:58:11.953Z,52.60
2023-09-30T11:00:40.152Z,53.30
2023-09-30T11:03:10.605Z,52.10
2023-09-30T11:20:25.418Z,51.20
2023-09-30T11:30:35.493Z,47.00
2023-09-30T11:33:03.644Z,47.10
2023-09-30T11:43:13.297Z,42.80
2023-09-30T11:45:43.047Z,43.90
2023-09-30T11:55:28.800Z,36.30
2023-09-30T11:57:57.256Z,37.00
2023-09-30T12:00:27.573Z,35.30
2023-09-30T12:02:55.792Z,33.80
2023-09-30T12:05:23.825Z,33.30
2023-09-30T12:07:51.801Z,31.50
2023-09-30T12:10:19.700Z,29.80
2023-09-30T12:12:51.469Z,30.80
2023-09-30T12:15:21.245Z,32.20
2023-09-30T12:17:49.235Z,32.10
2023-09-30T12:20:19.534Z,31.20
2023-09-30T12:22:47.439Z,31.00
2023-09-30T12:25:15.731Z,30.60
2023-09-30T12:27:43.895Z,29.50
2023-09-30T12:30:15.218Z,29.50
2023-09-30T12:32:44.692Z,29.10
2023-09-30T12:35:15.539Z,28.00
2023-09-30T12:37:44.503Z,27.30
2023-09-30T12:40:15.524Z,25.00
2023-09-30T12:42:43.865Z,26.00
2023-09-30T12:45:15.862Z,28.60
2023-09-30T12:47:46.206Z,23.80
2023-09-30T12:50:14.948Z,23.70
2023-09-30T12:52:43.299Z,23.70
2023-09-30T12:55:12.477Z,24.10
2023-09-30T12:57:41.048Z,24.00
2023-09-30T13:00:11.182Z,24.00
2023-09-30T13:02:43.128Z,22.70
2023-09-30T13:05:13.588Z,22.50
2023-09-30T13:07:44.319Z,19.80
2023-09-30T13:10:13.752Z,20.90
2023-09-30T13:12:42.270Z,19.70
2023-09-30T13:15:11.096Z,18.90
2023-09-30T13:17:40.680Z,18.90
2023-09-30T13:20:10.127Z,20.00
2023-09-30T13:22:39.348Z,19.60
2023-09-30T13:25:09.286Z,19.30
2023-09-30T13:27:37.378Z,20.40
2023-09-30T13:30:06.294Z,22.10
2023-09-30T13:32:37.001Z,16.70
2023-09-30T13:35:08.084Z,16.40
2023-09-30T13:37:38.201Z,14.20
2023-09-30T13:40:10.103Z,15.70
2023-09-30T13:42:38.268Z,13.90
2023-09-30T13:45:07.993Z,10.60
2023-09-30T13:47:37.016Z,11.20
2023-09-30T13:50:08.944Z,10.90
2023-09-30T13:52:36.882Z,12.40
2023-09-30T13:55:06.087Z,10.60
2023-09-30T13:57:34.045Z,10.20
2023-09-30T14:00:03.112Z,10.80
2023-09-30T14:02:31.171Z,8.90
2023-09-30T14:04:59.446Z,8.30
2023-09-30T14:07:30.227Z,10.20
2023-09-30T14:09:59.906Z,7.10
2023-09-30T14:12:28.703Z,7.10
2023-09-30T14:14:56.553Z,3.40
2023-09-30T14:17:24.704Z,4.40
2023-09-30T14:19:52.527Z,5.40
2023-09-30T14:22:21.883Z,4.20
2023-09-30T14:24:51.146Z,2.10
2023-09-30T14:27:21.558Z,2.70
2023-09-30T14:29:49.973Z,5.00
2023-09-30T14:32:18.715Z,4.00
2023-09-30T14:34:47.712Z,3.20
2023-09-30T14:37:16.011Z,1.50
2023-09-30T14:39:47.201Z,1.00
2023-09-30T14:42:16.902Z,1.00
2023-09-30T14:44:44.748Z,2.40
2023-09-30T14:47:12.574Z,1.00
2023-09-30T14:49:40.707Z,1.20
2023-09-30T14:52:11.061Z,1.60
2023-09-30T14:54:39.961Z,1.00
2023-09-30T14:57:09.720Z,1.00
2023-09-30T14:59:39.396Z,1.00
2023-09-30T15:02:09.425Z,1.00
2023-09-30T15:04:37.858Z,1.00
2023-09-30T15:07:06.011Z,1.00
2023-09-30T15:09:33.952Z,1.00
2023-09-30T15:12:02.081Z,1.00
2023-09-30T15:14:29.998Z,1.10
2023-09-30T15:17:02.046Z,1.00
2023-09-30T15:19:29.919Z,1.00
2023-09-30T15:21:59.153Z,1.00
2023-09-30T15:24:27.490Z,1.00
2023-09-30T15:26:55.848Z,1.00
2023-09-30T15:29:24.020Z,1.00
2023-09-30T15:31:51.948Z,1.00
2023-09-30T15:34:21.520Z,1.00
2023-09-30T15:36:49.695Z,1.00
2023-09-30T15:39:18.920Z,1.00
2023-09-30T15:41:46.995Z,1.00
2023-09-30T15:44:15.630Z,1.00
2023-09-30T15:46:43.834Z,1.00
2023-09-30T15:49:12.921Z,1.00
2023-09-30T15:51:42.407Z,2.30
2023-09-30T15:54:12.948Z,3.00
2023-09-30T15:56:55.221Z,1.00
2023-09-30T15:59:26.469Z,1.00
2023-09-30T16:01:54.511Z,1.00
2023-09-30T16:04:22.606Z,1.00
2023-09-30T16:06:52.604Z,1.00
2023-09-30T16:09:22.129Z,1.00
2023-09-30T16:11:50.238Z,1.00
2023-09-30T16:14:18.828Z,1.00
2023-09-30T16:16:46.873Z,1.00
2023-09-30T16:19:16.914Z,1.00
2023-09-30T16:21:44.797Z,1.00
2023-09-30T16:24:15.414Z,1.00
2023-09-30T16:26:43.531Z,1.20
2023-09-30T16:29:53.559Z,1.80
2023-09-30T16:32:25.700Z,3.20
2023-09-30T16:34:53.635Z,5.00
2023-09-30T16:37:22.176Z,6.40
2023-09-30T16:39:51.597Z,9.00
2023-09-30T16:42:19.668Z,9.90
2023-09-30T16:44:47.584Z,11.90
2023-09-30T16:47:16.100Z,13.30
2023-09-30T16:49:46.654Z,15.90
2023-09-30T16:52:22.361Z,18.50
2023-09-30T16:54:52.537Z,19.60
2023-09-30T16:57:21.057Z,21.90
2023-09-30T16:59:49.806Z,24.90
2023-09-30T17:02:18.835Z,26.20
2023-09-30T17:04:48.950Z,27.90
2023-09-30T17:07:18.399Z,28.70
2023-09-30T17:09:47.791Z,29.70
2023-09-30T17:12:17.263Z,32.20
2023-09-30T17:14:47.209Z,33.70
2023-09-30T17:17:15.178Z,35.00
2023-09-30T17:19:43.239Z,36.30
2023-09-30T17:22:13.049Z,37.10
2023-09-30T17:24:42.543Z,37.40
2023-09-30T17:27:11.147Z,37.90
2023-09-30T17:29:40.692Z,38.60
2023-09-30T17:32:11.902Z,38.80
2023-09-30T17:34:40.030Z,38.30
2023-09-30T17:37:09.096Z,38.60
2023-09-30T17:39:37.534Z,39.60
2023-09-30T17:42:05.990Z,40.80
2023-09-30T17:44:34.072Z,42.20
2023-09-30T17:47:03.685Z,43.60
2023-09-30T17:49:32.231Z,44.70
2023-09-30T17:52:00.867Z,45.30
2023-09-30T17:54:29.062Z,46.50
2023-09-30T17:56:57.034Z,48.00
2023-09-30T17:59:25.170Z,48.30
2023-09-30T18:01:53.318Z,49.10
2023-09-30T18:04:24.132Z,49.20
2023-09-30T18:06:52.498Z,49.60
2023-09-30T18:09:28.108Z,49.90
2023-09-30T18:11:56.347Z,51.70
2023-09-30T18:14:25.061Z,52.60
2023-09-30T18:16:54.141Z,53.70
2023-09-30T18:19:23.701Z,54.00
2023-09-30T18:21:54.466Z,54.00
2023-09-30T18:24:22.347Z,53.30
2023-09-30T18:26:53.016Z,53.60
2023-09-30T18:29:21.247Z,54.10
2023-09-30T18:31:50.029Z,54.10
2023-09-30T18:34:18.858Z,54.80
2023-09-30T18:36:48.575Z,55.60
2023-09-30T18:41:53.654Z,59.10
2023-09-30T18:44:22.292Z,58.80
2023-09-30T18:46:53.014Z,59.20
2023-09-30T18:49:22.535Z,58.70
2023-09-30T18:51:53.867Z,58.10
2023-09-30T18:54:23.683Z,57.50
2023-09-30T18:56:52.282Z,57.60
2023-09-30T18:59:23.013Z,57.60
2023-09-30T19:01:52.227Z,56.90
2023-09-30T19:04:23.770Z,55.50
2023-09-30T19:06:53.851Z,55.20
2023-09-30T19:09:22.010Z,54.70
2023-09-30T19:11:50.288Z,54.10
2023-09-30T19:14:19.029Z,54.60
2023-09-30T19:16:47.250Z,54.90
2023-09-30T19:19:15.690Z,55.40
2023-09-30T19:21:43.912Z,55.70
2023-09-30T19:24:13.838Z,56.30
2023-09-30T19:26:41.969Z,57.30
2023-09-30T19:29:09.870Z,58.40
2023-09-30T19:31:37.836Z,58.90
2023-09-30T19:34:06.999Z,58.80
2023-09-30T19:36:36.225Z,59.00
2023-09-30T19:39:04.503Z,59.60
2023-09-30T19:41:39.742Z,62.60
2023-09-30T19:44:11.444Z,64.00
2023-09-30T19:46:39.641Z,63.30
2023-09-30T19:49:07.762Z,63.10
2023-09-30T19:51:35.655Z,63.30
2023-09-30T19:54:04.170Z,64.30
2023-09-30T19:56:34.434Z,66.30
2023-09-30T19:59:02.674Z,72.00
2023-09-30T20:01:30.836Z,74.20
2023-09-30T20:04:04.558Z,78.60
2023-09-30T20:06:34.835Z,84.60
2023-09-30T20:09:03.459Z,86.60
2023-09-30T20:11:31.750Z,90.20
2023-09-30T20:14:01.954Z,92.10
2023-09-30T20:16:31.603Z,95.20
2023-09-30T20:19:00.108Z,96.90
2023-09-30T20:21:29.052Z,96.70
2023-09-30T20:23:57.456Z,97.00
2023-09-30T20:26:28.132Z,97.50
2023-09-30T20:28:58.975Z,98.50
2023-09-30T20:31:30.695Z,99.90
2023-09-30T20:33:58.883Z,99.90
2023-09-30T20:36:27.569Z,99.90
2023-09-30T20:38:56.874Z,99.90
2023-09-30T20:41:25.390Z,99.90
2023-09-30T20:43:53.972Z,99.90
2023-09-30T20:46:22.053Z,99.90
2023-09-30T20:48:51.574Z,99.90
2023-09-30T20:51:19.656Z,99.90
2023-09-30T20:53:50.544Z,99.90
2023-09-30T20:56:19.665Z,99.90
2023-09-30T20:58:50.017Z,99.90
2023-09-30T21:01:20.767Z,99.90
2023-09-30T21:03:52.315Z,99.90
2023-09-30T21:06:20.291Z,99.90
2023-09-30T21:08:52.369Z,99.90
2023-09-30T21:11:20.637Z,99.90
2023-09-30T21:13:51.170Z,99.90
2023-09-30T21:16:19.682Z,99.90
2023-09-30T21:18:48.474Z,99.90
2023-09-30T21:21:18.372Z,99.90
2023-09-30T21:23:47.742Z,99.90
2023-09-30T21:26:18.068Z,99.90
2023-09-30T21:28:49.525Z,99.90
2023-09-30T21:31:18.327Z,99.90
2023-09-30T21:33:47.653Z,99.90
2023-09-30T21:36:17.317Z,99.90
2023-09-30T21:38:46.713Z,99.90
2023-09-30T21:41:15.509Z,99.90
2023-09-30T21:43:46.201Z,99.90
2023-09-30T21:46:14.823Z,99.90
2023-09-30T21:48:43.397Z,99.90
2023-09-30T21:51:14.656Z,99.90
2023-09-30T21:53:44.856Z,99.90
2023-09-30T21:56:12.969Z,99.90
2023-09-30T21:58:43.352Z,99.90
2023-09-30T22:01:16.673Z,99.90
2023-09-30T22:03:45.664Z,99.90
2023-09-30T22:06:14.363Z,99.90
2023-09-30T22:08:44.545Z,99.90
2023-09-30T22:11:14.176Z,99.90
2023-09-30T22:13:42.773Z,99.90
2023-09-30T22:16:11.993Z,99.90
2023-09-30T22:18:40.359Z,99.90
2023-09-30T22:21:12.077Z,99.90
2023-09-30T22:23:40.954Z,99.90
2023-09-30T22:26:12.212Z,99.90
2023-09-30T22:28:40.389Z,99.90
2023-09-30T22:31:08.367Z,99.90
2023-09-30T22:33:36.265Z,99.90
2023-09-30T22:36:04.138Z,99.90
2023-09-30T22:38:32.791Z,99.90
2023-09-30T22:41:00.855Z,99.90
2023-09-30T22:43:30.150Z,99.90
2023-09-30T22:45:58.308Z,99.90
2023-09-30T22:48:26.669Z,99.90
2023-09-30T22:50:55.217Z,99.90
2023-09-30T22:53:27.204Z,99.90
2023-09-30T22:55:55.468Z,99.90
2023-09-30T22:58:23.300Z,99.90
2023-09-30T23:00:52.715Z,99.90
2023-09-30T23:03:20.927Z,99.90
2023-09-30T23:05:50.176Z,99.90
2023-09-30T23:08:20.874Z,99.90
2023-09-30T23:10:49.386Z,99.90
2023-09-30T23:13:17.666Z,99.90
2023-09-30T23:15:46.861Z,99.90
2023-09-30T23:18:17.228Z,99.90
2023-09-30T23:20:52.503Z,99.90
2023-09-30T23:23:21.266Z,99.90
2023-09-30T23:25:49.765Z,99.90
2023-09-30T23:28:18.135Z,99.90
2023-09-30T23:30:46.331Z,99.90
2023-09-30T23:33:14.368Z,99.90
2023-09-30T23:35:45.399Z,99.90
2023-09-30T23:38:14.620Z,99.90
2023-09-30T23:40:43.286Z,99.90
2023-09-30T23:43:13.507Z,99.90
2023-09-30T23:45:44.337Z,99.90
2023-09-30T23:48:16.391Z,99.90
2023-09-30T23:50:50.965Z,99.90
2023-09-30T23:53:22.128Z,99.90
2023-09-30T23:55:50.550Z,99.90
2023-09-30T23:58:18.807Z,99.90
